createdAt,value
2023-08-26T00:00:28.665Z,988.71
2023-08-26T00:01:28.671Z,988.81
2023-08-26T00:02:28.632Z,988.81
2023-08-26T00:03:28.777Z,988.79
2023-08-26T00:04:28.615Z,988.83
2023-08-26T00:05:28.618Z,988.87
2023-08-26T00:06:28.586Z,988.87
2023-08-26T00:07:28.561Z,988.89
2023-08-26T00:08:28.556Z,988.88
2023-08-26T00:09:28.535Z,988.86
2023-08-26T00:10:28.523Z,988.97
2023-08-26T00:11:28.509Z,988.90
2023-08-26T00:12:28.508Z,988.96
2023-08-26T00:13:28.483Z,988.95
2023-08-26T00:14:28.474Z,988.95
2023-08-26T00:15:28.460Z,988.94
2023-08-26T00:16:28.449Z,988.94
2023-08-26T00:17:28.458Z,988.91
2023-08-26T00:18:28.443Z,988.93
2023-08-26T00:19:28.405Z,988.92
2023-08-26T00:20:28.401Z,988.92
2023-08-26T00:21:28.407Z,988.90
2023-08-26T00:22:28.368Z,988.91
2023-08-26T00:23:28.357Z,988.96
2023-08-26T00:24:28.345Z,989.03
2023-08-26T00:25:28.328Z,989.11
2023-08-26T00:26:28.313Z,989.10
2023-08-26T00:27:28.299Z,989.12
2023-08-26T00:28:28.293Z,989.14
2023-08-26T00:29:28.279Z,989.04
2023-08-26T00:30:28.264Z,988.96
2023-08-26T00:31:28.291Z,988.86
2023-08-26T00:32:28.297Z,988.86
2023-08-26T00:33:28.226Z,988.83
2023-08-26T00:34:28.213Z,988.81
2023-08-26T00:35:28.212Z,988.81
2023-08-26T00:36:28.187Z,988.77
2023-08-26T00:37:28.193Z,988.83
2023-08-26T00:38:28.167Z,988.83
2023-08-26T00:39:28.144Z,988.92
2023-08-26T00:40:28.146Z,988.95
2023-08-26T00:41:28.129Z,988.92
2023-08-26T00:42:28.107Z,988.94
2023-08-26T00:43:28.091Z,988.95
2023-08-26T00:44:28.079Z,988.99
2023-08-26T00:45:28.066Z,988.96
2023-08-26T00:46:28.117Z,989.06
2023-08-26T00:47:28.049Z,989.10
2023-08-26T00:48:28.024Z,989.14
2023-08-26T00:49:28.014Z,989.13
2023-08-26T00:50:28.006Z,989.11
2023-08-26T00:51:27.995Z,989.21
2023-08-26T00:52:27.990Z,989.28
2023-08-26T00:53:27.986Z,989.28
2023-08-26T00:54:27.948Z,989.23
2023-08-26T00:55:27.936Z,989.25
2023-08-26T00:56:27.919Z,989.23
2023-08-26T00:57:27.922Z,989.17
2023-08-26T00:58:27.895Z,989.21
2023-08-26T00:59:27.887Z,989.21
2023-08-26T01:00:27.870Z,989.19
2023-08-26T01:01:27.869Z,989.15
2023-08-26T01:02:27.921Z,989.16
2023-08-26T01:03:27.979Z,989.22
2023-08-26T01:04:27.838Z,989.22
2023-08-26T01:05:27.803Z,989.18
2023-08-26T01:06:27.791Z,989.24
2023-08-26T01:07:27.779Z,989.24
2023-08-26T01:08:27.767Z,989.24
2023-08-26T01:09:27.777Z,989.26
2023-08-26T01:10:27.742Z,989.26
2023-08-26T01:11:27.737Z,989.23
2023-08-26T01:12:27.710Z,989.30
2023-08-26T01:13:27.709Z,989.23
2023-08-26T01:14:27.701Z,989.04
2023-08-26T01:15:27.673Z,988.94
2023-08-26T01:16:27.666Z,989.08
2023-08-26T01:17:27.707Z,989.27
2023-08-26T01:18:27.632Z,989.31
2023-08-26T01:19:27.620Z,989.39
2023-08-26T01:20:27.617Z,989.44
2023-08-26T01:21:27.592Z,989.45
2023-08-26T01:22:27.578Z,989.38
2023-08-26T01:23:27.567Z,989.37
2023-08-26T01:24:27.553Z,989.33
2023-08-26T01:25:27.563Z,989.33
2023-08-26T01:26:27.531Z,989.30
2023-08-26T01:27:27.511Z,989.22
2023-08-26T01:28:27.498Z,989.26
2023-08-26T01:29:27.501Z,989.30
2023-08-26T01:30:27.473Z,989.27
2023-08-26T01:31:27.461Z,989.33
2023-08-26T01:32:27.501Z,989.29
2023-08-26T01:33:27.485Z,989.35
2023-08-26T01:34:27.418Z,989.34
2023-08-26T01:35:27.411Z,989.32
2023-08-26T01:36:27.401Z,989.30
2023-08-26T01:37:27.380Z,989.38
2023-08-26T01:38:27.369Z,989.39
2023-08-26T01:39:27.366Z,989.45
2023-08-26T01:40:27.339Z,989.47
2023-08-26T01:41:27.349Z,989.50
2023-08-26T01:42:27.318Z,989.52
2023-08-26T01:43:27.301Z,989.49
2023-08-26T01:44:27.284Z,989.49
2023-08-26T01:45:27.273Z,989.54
2023-08-26T01:46:27.700Z,989.60
2023-08-26T01:47:27.262Z,989.59
2023-08-26T01:48:27.230Z,989.56
2023-08-26T01:49:27.219Z,989.52
2023-08-26T01:50:27.232Z,989.54
2023-08-26T01:51:27.192Z,989.48
2023-08-26T01:52:27.178Z,989.46
2023-08-26T01:53:27.168Z,989.51
2023-08-26T01:54:27.160Z,989.55
2023-08-26T01:55:27.140Z,989.55
2023-08-26T01:57:27.140Z,989.53
2023-08-26T01:58:27.097Z,989.57
2023-08-26T01:59:27.102Z,989.60
2023-08-26T02:00:27.077Z,989.59
2023-08-26T02:01:27.099Z,989.57
2023-08-26T02:02:27.047Z,989.69
2023-08-26T02:03:27.071Z,989.62
2023-08-26T02:04:27.018Z,989.64
2023-08-26T02:05:27.008Z,989.69
2023-08-26T02:06:26.991Z,989.64
2023-08-26T02:07:26.984Z,989.67
2023-08-26T02:08:26.967Z,989.74
2023-08-26T02:09:26.957Z,989.76
2023-08-26T02:10:26.950Z,989.73
2023-08-26T02:11:26.985Z,989.76
2023-08-26T02:12:26.911Z,989.76
2023-08-26T02:13:26.942Z,989.71
2023-08-26T02:14:26.883Z,989.76
2023-08-26T02:15:26.873Z,989.81
2023-08-26T02:16:26.915Z,989.84
2023-08-26T02:17:26.846Z,989.84
2023-08-26T02:18:26.836Z,989.83
2023-08-26T02:19:26.839Z,989.90
2023-08-26T02:20:26.804Z,989.90
2023-08-26T02:21:26.839Z,989.96
2023-08-26T02:22:26.781Z,989.98
2023-08-26T02:23:26.780Z,989.93
2023-08-26T02:24:26.758Z,989.91
2023-08-26T02:25:29.319Z,989.90
2023-08-26T02:26:26.725Z,989.92
2023-08-26T02:27:26.713Z,989.94
2023-08-26T02:28:26.698Z,990.02
2023-08-26T02:29:26.736Z,990.01
2023-08-26T02:30:26.681Z,990.02
2023-08-26T02:31:26.725Z,990.06
2023-08-26T02:32:26.683Z,990.09
2023-08-26T02:33:26.637Z,990.09
2023-08-26T02:34:26.620Z,990.12
2023-08-26T02:35:26.617Z,990.01
2023-08-26T02:36:26.610Z,990.01
2023-08-26T02:37:26.581Z,990.03
2023-08-26T02:38:26.578Z,990.05
2023-08-26T02:39:26.555Z,990.07
2023-08-26T02:40:26.543Z,990.12
2023-08-26T02:41:26.528Z,990.09
2023-08-26T02:42:26.520Z,990.11
2023-08-26T02:43:26.518Z,990.06
2023-08-26T02:44:26.505Z,990.10
2023-08-26T02:45:26.501Z,990.01
2023-08-26T02:46:26.461Z,990.00
2023-08-26T02:47:26.481Z,990.06
2023-08-26T02:48:26.434Z,990.10
2023-08-26T02:49:26.424Z,990.12
2023-08-26T02:50:26.408Z,990.16
2023-08-26T02:51:26.394Z,990.12
2023-08-26T02:52:26.383Z,990.12
2023-08-26T02:53:26.372Z,990.12
2023-08-26T02:54:26.359Z,990.12
2023-08-26T02:55:26.342Z,990.12
2023-08-26T02:56:26.328Z,990.14
2023-08-26T02:57:26.316Z,990.14
2023-08-26T02:58:26.318Z,990.14
2023-08-26T02:59:26.289Z,990.08
2023-08-26T03:00:26.275Z,990.12
2023-08-26T03:01:26.335Z,990.12
2023-08-26T03:02:26.415Z,990.12
2023-08-26T03:03:26.308Z,990.18
2023-08-26T03:04:26.226Z,990.14
2023-08-26T03:05:26.210Z,990.15
2023-08-26T03:06:26.196Z,990.15
2023-08-26T03:07:26.196Z,990.08
2023-08-26T03:08:26.180Z,990.01
2023-08-26T03:09:26.162Z,989.93
2023-08-26T03:10:26.146Z,989.93
2023-08-26T03:11:26.138Z,989.95
2023-08-26T03:12:26.115Z,989.94
2023-08-26T03:13:26.103Z,990.01
2023-08-26T03:14:26.090Z,989.99
2023-08-26T03:15:26.079Z,990.04
2023-08-26T03:16:26.064Z,990.06
2023-08-26T03:17:26.076Z,990.17
2023-08-26T03:18:26.039Z,990.28
2023-08-26T03:19:26.029Z,990.28
2023-08-26T03:20:26.040Z,990.34
2023-08-26T03:21:25.997Z,990.26
2023-08-26T03:22:25.982Z,990.28
2023-08-26T03:23:25.972Z,990.31
2023-08-26T03:24:25.957Z,990.35
2023-08-26T03:25:25.950Z,990.30
2023-08-26T03:26:25.949Z,990.28
2023-08-26T03:27:25.921Z,990.32
2023-08-26T03:28:25.909Z,990.33
2023-08-26T03:29:25.897Z,990.26
2023-08-26T03:30:25.883Z,990.33
2023-08-26T03:31:25.893Z,990.36
2023-08-26T03:32:25.892Z,990.38
2023-08-26T03:33:25.863Z,990.37
2023-08-26T03:34:25.830Z,990.33
2023-08-26T03:35:25.811Z,990.38
2023-08-26T03:36:25.801Z,990.35
2023-08-26T03:37:25.791Z,990.42
2023-08-26T03:38:25.770Z,990.42
2023-08-26T03:39:25.767Z,990.40
2023-08-26T03:40:25.758Z,990.41
2023-08-26T03:41:25.746Z,990.43
2023-08-26T03:42:25.719Z,990.47
2023-08-26T03:43:25.706Z,990.52
2023-08-26T03:44:25.701Z,990.54
2023-08-26T03:45:25.715Z,990.54
2023-08-26T03:46:25.665Z,990.51
2023-08-26T03:47:25.655Z,990.51
2023-08-26T03:48:25.638Z,990.52
2023-08-26T03:49:25.652Z,990.53
2023-08-26T03:50:25.662Z,990.59
2023-08-26T03:51:25.624Z,990.58
2023-08-26T03:52:25.587Z,990.58
2023-08-26T03:53:25.599Z,990.71
2023-08-26T03:54:25.582Z,990.66
2023-08-26T03:55:25.565Z,990.68
2023-08-26T03:56:25.558Z,990.59
2023-08-26T03:57:25.524Z,990.59
2023-08-26T03:58:25.515Z,990.72
2023-08-26T03:59:25.510Z,990.69
2023-08-26T04:00:25.481Z,990.67
2023-08-26T04:01:25.556Z,990.68
2023-08-26T04:02:25.462Z,990.70
2023-08-26T04:03:25.558Z,990.75
2023-08-26T04:04:25.434Z,990.71
2023-08-26T04:05:25.450Z,990.65
2023-08-26T04:06:25.402Z,990.73
2023-08-26T04:07:25.389Z,990.77
2023-08-26T04:08:25.374Z,990.72
2023-08-26T04:09:25.365Z,990.78
2023-08-26T04:10:26.295Z,990.78
2023-08-26T04:11:25.338Z,990.79
2023-08-26T04:12:25.322Z,990.77
2023-08-26T04:13:25.321Z,990.78
2023-08-26T04:14:25.297Z,990.85
2023-08-26T04:15:25.281Z,990.77
2023-08-26T04:16:25.271Z,990.80
2023-08-26T04:17:25.264Z,990.83
2023-08-26T04:18:25.246Z,990.91
2023-08-26T04:19:25.230Z,990.89
2023-08-26T04:20:25.216Z,990.82
2023-08-26T04:21:25.230Z,990.92
2023-08-26T04:22:25.197Z,990.91
2023-08-26T04:23:25.185Z,990.98
2023-08-26T04:24:25.162Z,990.99
2023-08-26T04:25:25.149Z,991.00
2023-08-26T04:26:25.136Z,991.01
2023-08-26T04:27:25.132Z,991.02
2023-08-26T04:28:25.110Z,991.05
2023-08-26T04:29:25.104Z,991.09
2023-08-26T04:30:25.082Z,991.10
2023-08-26T04:31:25.130Z,991.12
2023-08-26T04:32:25.088Z,991.17
2023-08-26T04:33:25.141Z,991.17
2023-08-26T04:34:25.028Z,991.13
2023-08-26T04:35:25.017Z,991.16
2023-08-26T04:36:25.014Z,991.22
2023-08-26T04:37:25.023Z,991.28
2023-08-26T04:38:24.988Z,991.24
2023-08-26T04:39:24.967Z,991.21
2023-08-26T04:40:26.245Z,991.22
2023-08-26T04:41:24.944Z,991.29
2023-08-26T04:42:24.926Z,991.37
2023-08-26T04:43:24.916Z,991.35
2023-08-26T04:44:24.899Z,991.39
2023-08-26T04:45:24.884Z,991.35
2023-08-26T04:46:25.400Z,991.37
2023-08-26T04:47:24.870Z,991.40
2023-08-26T04:48:24.855Z,991.43
2023-08-26T04:49:24.834Z,991.44
2023-08-26T04:50:24.841Z,991.42
2023-08-26T04:51:24.809Z,991.49
2023-08-26T04:52:24.805Z,991.47
2023-08-26T04:53:24.806Z,991.44
2023-08-26T04:54:24.774Z,991.47
2023-08-26T04:55:24.762Z,991.50
2023-08-26T04:56:24.740Z,991.50
2023-08-26T04:57:24.729Z,991.54
2023-08-26T04:58:24.734Z,991.53
2023-08-26T04:59:24.701Z,991.58
2023-08-26T05:00:24.715Z,991.54
2023-08-26T05:01:24.678Z,991.61
2023-08-26T05:02:24.693Z,991.58
2023-08-26T05:03:24.710Z,991.56
2023-08-26T05:04:24.638Z,991.61
2023-08-26T05:05:24.624Z,991.57
2023-08-26T05:06:24.611Z,991.58
2023-08-26T05:07:24.597Z,991.60
2023-08-26T05:08:24.587Z,991.60
2023-08-26T05:09:24.603Z,991.58
2023-08-26T05:10:24.557Z,991.62
2023-08-26T05:11:24.546Z,991.61
2023-08-26T05:12:24.533Z,991.65
2023-08-26T05:13:24.520Z,991.69
2023-08-26T05:14:24.506Z,991.77
2023-08-26T05:15:24.494Z,991.67
2023-08-26T05:16:24.555Z,991.74
2023-08-26T05:17:24.518Z,991.75
2023-08-26T05:18:24.460Z,991.78
2023-08-26T05:19:24.438Z,991.81
2023-08-26T05:20:24.427Z,991.83
2023-08-26T05:21:24.419Z,991.80
2023-08-26T05:22:24.404Z,991.83
2023-08-26T05:23:24.387Z,991.82
2023-08-26T05:24:24.375Z,991.84
2023-08-26T05:25:24.384Z,991.79
2023-08-26T05:26:24.363Z,991.82
2023-08-26T05:27:24.352Z,991.83
2023-08-26T05:28:24.334Z,991.83
2023-08-26T05:29:24.311Z,991.83
2023-08-26T05:30:24.307Z,991.84
2023-08-26T05:31:24.286Z,991.81
2023-08-26T05:32:24.315Z,991.87
2023-08-26T05:33:24.257Z,991.89
2023-08-26T05:34:24.256Z,991.89
2023-08-26T05:35:24.230Z,991.85
2023-08-26T05:36:24.219Z,991.84
2023-08-26T05:37:24.203Z,991.87
2023-08-26T05:38:24.211Z,991.91
2023-08-26T05:39:24.179Z,991.84
2023-08-26T05:40:24.166Z,991.83
2023-08-26T05:41:24.175Z,991.86
2023-08-26T05:42:24.137Z,991.93
2023-08-26T05:43:24.127Z,991.88
2023-08-26T05:44:24.113Z,991.86
2023-08-26T05:45:24.130Z,991.84
2023-08-26T05:46:24.124Z,991.82
2023-08-26T05:47:24.118Z,991.84
2023-08-26T05:48:24.062Z,991.86
2023-08-26T05:49:24.046Z,991.87
2023-08-26T05:50:24.034Z,991.85
2023-08-26T05:51:24.018Z,991.92
2023-08-26T05:52:24.011Z,991.87
2023-08-26T05:53:24.005Z,991.93
2023-08-26T05:54:23.984Z,991.87
2023-08-26T05:55:23.968Z,991.97
2023-08-26T05:56:23.955Z,991.90
2023-08-26T05:57:24.002Z,991.91
2023-08-26T05:58:23.931Z,991.91
2023-08-26T05:59:23.912Z,991.84
2023-08-26T06:00:23.929Z,991.83
2023-08-26T06:01:23.897Z,991.94
2023-08-26T06:02:23.893Z,991.96
2023-08-26T06:03:23.859Z,991.95
2023-08-26T06:04:23.849Z,991.94
2023-08-26T06:05:23.833Z,991.94
2023-08-26T06:06:23.845Z,991.96
2023-08-26T06:07:23.810Z,991.90
2023-08-26T06:08:23.797Z,992.00
2023-08-26T06:09:23.783Z,991.94
2023-08-26T06:10:23.772Z,991.97
2023-08-26T06:11:23.760Z,991.97
2023-08-26T06:12:23.748Z,991.93
2023-08-26T06:13:23.760Z,992.04
2023-08-26T06:14:23.721Z,991.92
2023-08-26T06:15:23.704Z,992.02
2023-08-26T06:16:23.719Z,992.03
2023-08-26T06:17:23.740Z,992.09
2023-08-26T06:18:23.667Z,992.10
2023-08-26T06:19:23.653Z,992.04
2023-08-26T06:20:23.670Z,992.08
2023-08-26T06:21:23.628Z,992.10
2023-08-26T06:22:23.620Z,992.02
2023-08-26T06:23:23.600Z,992.08
2023-08-26T06:24:23.589Z,992.13
2023-08-26T06:25:23.576Z,992.14
2023-08-26T06:26:23.565Z,992.14
2023-08-26T06:27:23.546Z,992.08
2023-08-26T06:28:23.539Z,992.12
2023-08-26T06:29:23.552Z,992.14
2023-08-26T06:30:23.546Z,992.12
2023-08-26T06:31:23.515Z,992.21
2023-08-26T06:32:23.501Z,992.22
2023-08-26T06:33:23.469Z,992.16
2023-08-26T06:34:23.469Z,992.22
2023-08-26T06:35:23.442Z,992.25
2023-08-26T06:36:23.431Z,992.24
2023-08-26T06:37:23.414Z,992.23
2023-08-26T06:38:23.403Z,992.23
2023-08-26T06:39:23.394Z,992.21
2023-08-26T06:40:23.381Z,992.25
2023-08-26T06:41:23.364Z,992.26
2023-08-26T06:42:23.353Z,992.27
2023-08-26T06:43:23.339Z,992.23
2023-08-26T06:44:23.333Z,992.28
2023-08-26T06:45:23.337Z,992.21
2023-08-26T06:46:23.333Z,992.26
2023-08-26T06:47:23.287Z,992.22
2023-08-26T06:48:23.319Z,992.23
2023-08-26T06:49:23.263Z,992.18
2023-08-26T06:50:23.254Z,992.17
2023-08-26T06:51:23.241Z,992.22
2023-08-26T06:52:23.225Z,992.19
2023-08-26T06:53:23.213Z,992.14
2023-08-26T06:54:23.202Z,992.16
2023-08-26T06:55:23.210Z,992.23
2023-08-26T06:56:23.175Z,992.12
2023-08-26T06:57:23.164Z,992.13
2023-08-26T06:58:23.149Z,992.19
2023-08-26T06:59:23.141Z,992.20
2023-08-26T07:00:23.156Z,992.17
2023-08-26T07:01:23.186Z,992.16
2023-08-26T07:02:23.107Z,992.17
2023-08-26T07:03:23.108Z,992.20
2023-08-26T07:04:23.075Z,992.21
2023-08-26T07:05:23.103Z,992.19
2023-08-26T07:06:23.049Z,992.18
2023-08-26T07:07:23.041Z,992.12
2023-08-26T07:08:23.038Z,992.18
2023-08-26T07:09:23.012Z,992.07
2023-08-26T07:10:23.008Z,992.12
2023-08-26T07:11:22.989Z,992.11
2023-08-26T07:12:22.978Z,992.08
2023-08-26T07:13:22.963Z,992.07
2023-08-26T07:14:22.960Z,992.05
2023-08-26T07:15:22.942Z,992.00
2023-08-26T07:16:23.022Z,991.95
2023-08-26T07:17:22.941Z,991.95
2023-08-26T07:18:22.929Z,991.97
2023-08-26T07:19:22.904Z,991.94
2023-08-26T07:20:22.878Z,991.96
2023-08-26T07:21:22.862Z,991.96
2023-08-26T07:22:29.634Z,991.95
2023-08-26T07:23:22.841Z,991.94
2023-08-26T07:24:22.829Z,992.02
2023-08-26T07:25:22.869Z,992.00
2023-08-26T07:26:22.804Z,992.00
2023-08-26T07:27:22.789Z,992.00
2023-08-26T07:28:22.774Z,991.93
2023-08-26T07:29:22.760Z,991.92
2023-08-26T07:30:22.751Z,991.93
2023-08-26T07:31:22.799Z,991.97
2023-08-26T07:32:22.755Z,991.99
2023-08-26T07:33:22.732Z,991.99
2023-08-26T07:34:22.708Z,991.92
2023-08-26T07:35:22.686Z,991.96
2023-08-26T07:36:22.676Z,991.96
2023-08-26T07:37:22.663Z,991.95
2023-08-26T07:38:22.656Z,991.87
2023-08-26T07:39:22.646Z,991.89
2023-08-26T07:40:22.637Z,991.94
2023-08-26T07:41:22.614Z,991.90
2023-08-26T07:42:22.603Z,991.91
2023-08-26T07:43:22.590Z,991.85
2023-08-26T07:44:22.579Z,991.85
2023-08-26T07:45:22.596Z,991.91
2023-08-26T07:47:22.570Z,991.89
2023-08-26T07:49:22.633Z,991.88
2023-08-26T07:50:22.506Z,991.87
2023-08-26T07:51:22.489Z,991.86
2023-08-26T07:52:22.479Z,991.78
2023-08-26T07:53:22.472Z,991.86
2023-08-26T07:54:22.456Z,991.83
2023-08-26T07:55:22.448Z,991.80
2023-08-26T07:56:22.429Z,991.76
2023-08-26T07:57:22.431Z,991.78
2023-08-26T07:58:22.404Z,991.77
2023-08-26T07:59:22.389Z,991.79
2023-08-26T08:00:22.381Z,991.74
2023-08-26T08:01:22.385Z,991.75
2023-08-26T08:02:22.357Z,991.71
2023-08-26T08:03:22.417Z,991.74
2023-08-26T08:04:22.326Z,991.75
2023-08-26T08:05:22.344Z,991.73
2023-08-26T08:06:22.302Z,991.76
2023-08-26T08:07:22.285Z,991.76
2023-08-26T08:08:22.280Z,991.75
2023-08-26T08:09:22.262Z,991.77
2023-08-26T08:10:22.251Z,991.75
2023-08-26T08:11:22.238Z,991.73
2023-08-26T08:12:22.230Z,991.76
2023-08-26T08:13:22.221Z,991.70
2023-08-26T08:14:22.203Z,991.80
2023-08-26T08:15:22.189Z,991.82
2023-08-26T08:16:22.175Z,991.76
2023-08-26T08:17:22.175Z,991.76
2023-08-26T08:18:22.151Z,991.82
2023-08-26T08:19:22.136Z,991.84
2023-08-26T08:20:22.176Z,991.80
2023-08-26T08:21:22.134Z,991.88
2023-08-26T08:22:22.108Z,991.85
2023-08-26T08:23:22.090Z,991.83
2023-08-26T08:24:22.089Z,991.81
2023-08-26T08:25:22.061Z,991.81
2023-08-26T08:26:22.048Z,991.80
2023-08-26T08:27:22.034Z,991.87
2023-08-26T08:28:22.037Z,991.93
2023-08-26T08:29:22.010Z,991.88
2023-08-26T08:30:21.998Z,991.86
2023-08-26T08:31:22.031Z,991.92
2023-08-26T08:32:21.994Z,991.91
2023-08-26T08:33:21.958Z,991.91
2023-08-26T08:34:21.950Z,991.87
2023-08-26T08:35:21.936Z,991.89
2023-08-26T08:36:21.922Z,991.87
2023-08-26T08:37:21.946Z,991.81
2023-08-26T08:38:21.896Z,991.74
2023-08-26T08:39:21.881Z,991.77
2023-08-26T08:40:21.871Z,991.79
2023-08-26T08:41:21.863Z,991.79
2023-08-26T08:42:21.845Z,991.81
2023-08-26T08:43:21.851Z,991.77
2023-08-26T08:44:21.824Z,991.75
2023-08-26T08:45:21.817Z,991.75
2023-08-26T08:46:21.814Z,991.68
2023-08-26T08:47:21.778Z,991.72
2023-08-26T08:48:21.772Z,991.70
2023-08-26T08:49:21.756Z,991.68
2023-08-26T08:50:21.749Z,991.67
2023-08-26T08:51:21.731Z,991.67
2023-08-26T08:52:21.716Z,991.63
2023-08-26T08:53:21.728Z,991.60
2023-08-26T08:54:21.698Z,991.57
2023-08-26T08:55:21.682Z,991.59
2023-08-26T08:56:21.665Z,991.57
2023-08-26T08:57:21.655Z,991.54
2023-08-26T08:58:21.643Z,991.53
2023-08-26T08:59:21.628Z,991.54
2023-08-26T09:00:21.618Z,991.58
2023-08-26T09:01:21.649Z,991.49
2023-08-26T09:02:21.599Z,991.52
2023-08-26T09:03:21.637Z,991.41
2023-08-26T09:04:21.573Z,991.44
2023-08-26T09:05:21.557Z,991.41
2023-08-26T09:06:21.545Z,991.46
2023-08-26T09:07:21.536Z,991.48
2023-08-26T09:08:21.548Z,991.50
2023-08-26T09:09:32.150Z,991.47
2023-08-26T09:10:23.508Z,991.57
2023-08-26T09:11:21.482Z,991.59
2023-08-26T09:12:21.472Z,991.61
2023-08-26T09:13:21.459Z,991.61
2023-08-26T09:14:21.443Z,991.58
2023-08-26T09:15:21.433Z,991.59
2023-08-26T09:16:21.477Z,991.56
2023-08-26T09:17:21.413Z,991.56
2023-08-26T09:18:21.453Z,991.49
2023-08-26T09:19:21.385Z,991.60
2023-08-26T09:20:21.378Z,991.52
2023-08-26T09:21:21.366Z,991.54
2023-08-26T09:22:21.356Z,991.62
2023-08-26T09:23:21.338Z,991.60
2023-08-26T09:24:21.326Z,991.57
2023-08-26T09:25:21.348Z,991.61
2023-08-26T09:26:21.297Z,991.62
2023-08-26T09:27:21.287Z,991.61
2023-08-26T09:28:21.284Z,991.56
2023-08-26T09:29:21.274Z,991.54
2023-08-26T09:30:21.253Z,991.59
2023-08-26T09:31:21.316Z,991.57
2023-08-26T09:32:21.230Z,991.56
2023-08-26T09:33:21.228Z,991.58
2023-08-26T09:34:21.201Z,991.63
2023-08-26T09:37:21.172Z,991.46
2023-08-26T09:38:21.151Z,991.49
2023-08-26T09:39:21.142Z,991.51
2023-08-26T09:40:21.139Z,991.54
2023-08-26T09:41:21.223Z,991.46
2023-08-26T09:42:21.108Z,991.48
2023-08-26T09:43:21.094Z,991.49
2023-08-26T09:44:21.078Z,991.44
2023-08-26T09:45:21.119Z,991.45
2023-08-26T09:46:21.324Z,991.44
2023-08-26T09:47:21.169Z,991.46
2023-08-26T09:48:21.065Z,991.42
2023-08-26T09:49:21.026Z,991.36
2023-08-26T09:50:21.006Z,991.37
2023-08-26T09:51:20.995Z,991.40
2023-08-26T09:52:20.979Z,991.41
2023-08-26T09:53:20.972Z,991.47
2023-08-26T09:54:20.957Z,991.39
2023-08-26T09:55:20.949Z,991.40
2023-08-26T09:56:20.940Z,991.37
2023-08-26T09:58:20.909Z,991.37
2023-08-26T09:59:20.896Z,991.42
2023-08-26T10:00:20.887Z,991.36
2023-08-26T10:01:20.889Z,991.38
2023-08-26T10:02:20.861Z,991.38
2023-08-26T10:03:20.927Z,991.35
2023-08-26T10:04:20.838Z,991.34
2023-08-26T10:05:20.823Z,991.42
2023-08-26T10:06:20.814Z,991.43
2023-08-26T10:07:20.801Z,991.40
2023-08-26T10:08:20.788Z,991.42
2023-08-26T10:09:20.778Z,991.46
2023-08-26T10:10:20.767Z,991.46
2023-08-26T10:11:20.753Z,991.47
2023-08-26T10:12:20.756Z,991.48
2023-08-26T10:13:20.761Z,991.51
2023-08-26T10:14:20.714Z,991.52
2023-08-26T10:15:20.746Z,991.44
2023-08-26T10:16:34.070Z,991.45
2023-08-26T10:17:20.678Z,991.45
2023-08-26T10:18:20.668Z,991.45
2023-08-26T10:19:20.659Z,991.37
2023-08-26T10:20:20.658Z,991.39
2023-08-26T10:21:20.641Z,991.36
2023-08-26T10:22:20.618Z,991.36
2023-08-26T10:23:20.615Z,991.33
2023-08-26T10:24:20.598Z,991.39
2023-08-26T10:25:20.634Z,991.28
2023-08-26T10:26:20.581Z,991.34
2023-08-26T10:27:20.562Z,991.33
2023-08-26T10:28:20.549Z,991.31
2023-08-26T10:29:20.573Z,991.37
2023-08-26T10:30:20.526Z,991.31
2023-08-26T10:31:20.520Z,991.35
2023-08-26T10:32:20.536Z,991.28
2023-08-26T10:33:20.499Z,991.39
2023-08-26T10:34:20.500Z,991.36
2023-08-26T10:35:20.590Z,991.38
2023-08-26T10:36:20.458Z,991.34
2023-08-26T10:37:20.452Z,991.30
2023-08-26T10:38:20.439Z,991.33
2023-08-26T10:39:20.622Z,991.28
2023-08-26T10:40:20.415Z,991.30
2023-08-26T10:41:20.410Z,991.29
2023-08-26T10:42:20.395Z,991.32
2023-08-26T10:43:20.387Z,991.33
2023-08-26T10:44:20.374Z,991.33
2023-08-26T10:45:22.442Z,991.30
2023-08-26T10:46:20.363Z,991.30
2023-08-26T10:47:20.342Z,991.29
2023-08-26T10:48:20.323Z,991.26
2023-08-26T10:49:20.319Z,991.17
2023-08-26T10:50:20.329Z,991.16
2023-08-26T10:51:20.294Z,991.16
2023-08-26T10:52:20.280Z,991.16
2023-08-26T10:53:20.268Z,991.15
2023-08-26T10:54:20.256Z,991.16
2023-08-26T10:55:20.278Z,991.15
2023-08-26T10:56:20.230Z,991.15
2023-08-26T10:57:20.220Z,991.20
2023-08-26T10:58:20.211Z,991.10
2023-08-26T10:59:20.193Z,991.15
2023-08-26T11:00:20.179Z,991.18
2023-08-26T11:01:20.207Z,991.26
2023-08-26T11:02:20.182Z,991.24
2023-08-26T11:03:20.271Z,991.19
2023-08-26T11:04:20.132Z,991.19
2023-08-26T11:05:20.123Z,991.12
2023-08-26T11:06:20.107Z,991.19
2023-08-26T11:07:20.124Z,991.23
2023-08-26T11:08:20.083Z,991.20
2023-08-26T11:09:20.077Z,991.14
2023-08-26T11:10:20.059Z,991.22
2023-08-26T11:11:20.048Z,991.22
2023-08-26T11:12:20.043Z,991.17
2023-08-26T11:13:20.024Z,991.18
2023-08-26T11:14:20.011Z,991.11
2023-08-26T11:15:20.001Z,991.17
2023-08-26T11:16:20.050Z,991.14
2023-08-26T11:17:20.002Z,991.15
2023-08-26T11:18:20.035Z,991.13
2023-08-26T11:19:19.953Z,991.16
2023-08-26T11:20:19.935Z,991.13
2023-08-26T11:21:19.930Z,991.16
2023-08-26T11:22:19.913Z,991.09
2023-08-26T11:23:19.908Z,991.08
2023-08-26T11:24:19.889Z,991.17
2023-08-26T11:25:19.879Z,991.08
2023-08-26T11:26:19.865Z,991.18
2023-08-26T11:27:19.853Z,991.10
2023-08-26T11:28:19.844Z,991.14
2023-08-26T11:29:19.833Z,991.11
2023-08-26T11:30:19.815Z,991.07
2023-08-26T11:31:19.815Z,991.07
2023-08-26T11:32:19.792Z,991.08
2023-08-26T11:33:19.824Z,991.06
2023-08-26T11:34:19.774Z,991.09
2023-08-26T11:35:19.779Z,991.07
2023-08-26T11:36:19.750Z,991.05
2023-08-26T11:37:19.735Z,990.83
2023-08-26T11:38:19.719Z,990.86
2023-08-26T11:39:19.731Z,991.04
2023-08-26T11:40:19.782Z,990.93
2023-08-26T11:41:19.698Z,991.04
2023-08-26T11:42:19.673Z,991.05
2023-08-26T11:43:19.661Z,990.96
2023-08-26T11:44:19.649Z,990.89
2023-08-26T11:45:19.641Z,991.10
2023-08-26T11:46:19.638Z,991.10
2023-08-26T11:47:19.612Z,991.06
2023-08-26T11:48:19.613Z,991.09
2023-08-26T11:49:19.615Z,991.10
2023-08-26T11:50:19.576Z,991.09
2023-08-26T11:51:19.568Z,991.09
2023-08-26T11:52:19.556Z,991.09
2023-08-26T11:53:19.541Z,991.09
2023-08-26T11:54:19.528Z,991.02
2023-08-26T11:55:19.518Z,991.09
2023-08-26T11:56:19.507Z,990.93
2023-08-26T11:57:19.506Z,990.88
2023-08-26T11:58:19.479Z,990.91
2023-08-26T11:59:19.481Z,990.93
2023-08-26T12:00:19.461Z,990.96
2023-08-26T12:01:19.493Z,990.90
2023-08-26T12:02:19.431Z,990.99
2023-08-26T12:03:19.459Z,991.00
2023-08-26T12:04:19.435Z,991.07
2023-08-26T12:05:19.427Z,990.92
2023-08-26T12:06:19.380Z,991.11
2023-08-26T12:07:19.371Z,990.86
2023-08-26T12:08:19.359Z,990.87
2023-08-26T12:09:19.346Z,991.04
2023-08-26T12:10:19.330Z,990.85
2023-08-26T12:11:19.320Z,990.87
2023-08-26T12:12:19.312Z,990.86
2023-08-26T12:13:19.338Z,990.90
2023-08-26T12:14:19.282Z,990.96
2023-08-26T12:15:19.278Z,990.79
2023-08-26T12:16:19.278Z,991.04
2023-08-26T12:17:19.250Z,991.00
2023-08-26T12:18:19.280Z,990.97
2023-08-26T12:19:19.226Z,990.98
2023-08-26T12:20:19.205Z,990.77
2023-08-26T12:21:19.233Z,990.83
2023-08-26T12:22:19.187Z,990.93
2023-08-26T12:23:19.177Z,990.95
2023-08-26T12:24:19.162Z,990.95
2023-08-26T12:25:19.156Z,990.84
2023-08-26T12:26:19.154Z,990.99
2023-08-26T12:27:19.126Z,991.02
2023-08-26T12:28:19.163Z,990.96
2023-08-26T12:29:19.099Z,990.99
2023-08-26T12:30:19.085Z,990.99
2023-08-26T12:31:19.131Z,990.95
2023-08-26T12:32:19.065Z,990.97
2023-08-26T12:33:26.497Z,990.97
2023-08-26T12:34:19.035Z,990.95